createdAt,value
2022-12-29T00:01:44.471Z,978.24
2022-12-29T00:06:48.615Z,978.24
2022-12-29T00:11:52.753Z,978.34
2022-12-29T00:16:56.913Z,978.24
2022-12-29T00:22:01.094Z,978.37
2022-12-29T00:27:05.265Z,978.36
2022-12-29T00:32:09.391Z,978.25
2022-12-29T00:37:13.564Z,978.21
2022-12-29T00:42:17.735Z,978.10
2022-12-29T00:47:21.896Z,977.81
2022-12-29T00:52:26.042Z,977.72
2022-12-29T00:57:30.228Z,977.70
2022-12-29T01:02:34.471Z,977.53
2022-12-29T01:07:38.695Z,977.43
2022-12-29T01:12:42.719Z,977.46
2022-12-29T01:17:46.864Z,977.36
2022-12-29T01:22:50.999Z,977.10
2022-12-29T01:27:53.292Z,977.10
2022-12-29T01:32:57.430Z,977.12
2022-12-29T01:38:01.753Z,977.14
2022-12-29T01:43:03.903Z,977.14
2022-12-29T01:48:08.035Z,977.29
2022-12-29T01:53:12.231Z,977.19
2022-12-29T01:58:16.390Z,977.36
2022-12-29T02:03:20.618Z,977.52
2022-12-29T02:08:24.689Z,977.51
2022-12-29T02:13:28.880Z,977.62
2022-12-29T02:18:33.043Z,977.78
2022-12-29T02:23:37.193Z,978.05
2022-12-29T02:28:41.374Z,978.11
2022-12-29T02:33:45.492Z,978.41
2022-12-29T02:38:49.671Z,978.40
2022-12-29T02:43:53.819Z,978.65
2022-12-29T02:48:57.986Z,978.61
2022-12-29T02:54:02.144Z,978.83
2022-12-29T02:59:06.297Z,979.18
2022-12-29T03:04:10.468Z,979.60
2022-12-29T03:09:18.882Z,980.15
2022-12-29T03:14:18.764Z,980.57
2022-12-29T03:19:22.946Z,980.61
2022-12-29T03:24:27.149Z,980.54
2022-12-29T03:29:29.375Z,980.37
2022-12-29T03:34:33.564Z,980.39
2022-12-29T03:39:37.731Z,980.36
2022-12-29T03:44:41.922Z,980.11
2022-12-29T03:49:46.006Z,980.16
2022-12-29T03:54:50.209Z,979.63
2022-12-29T03:59:54.334Z,979.09
2022-12-29T04:04:58.496Z,978.71
2022-12-29T04:10:02.682Z,978.33
2022-12-29T04:15:06.832Z,978.04
2022-12-29T04:20:11.029Z,977.97
2022-12-29T04:25:13.356Z,977.90
2022-12-29T04:30:17.424Z,977.97
2022-12-29T04:35:21.579Z,978.22
2022-12-29T04:40:25.754Z,978.31
2022-12-29T04:45:29.900Z,978.88
2022-12-29T04:50:34.092Z,979.35
2022-12-29T04:55:38.237Z,979.85
2022-12-29T05:00:42.402Z,980.23
2022-12-29T05:05:46.541Z,980.51
2022-12-29T05:10:50.739Z,980.72
2022-12-29T05:15:53.168Z,981.26
2022-12-29T05:20:57.141Z,981.64
2022-12-29T05:25:59.413Z,982.08
2022-12-29T05:31:03.633Z,982.28
2022-12-29T05:36:07.778Z,982.55
2022-12-29T05:41:10.005Z,982.67
2022-12-29T05:46:14.305Z,983.11
2022-12-29T05:51:18.400Z,983.31
2022-12-29T05:56:22.487Z,983.22
2022-12-29T06:01:26.777Z,983.08
2022-12-29T06:06:30.820Z,983.20
2022-12-29T06:11:34.952Z,983.46
2022-12-29T06:16:39.181Z,983.41
2022-12-29T06:21:43.271Z,983.55
2022-12-29T06:26:47.477Z,983.84
2022-12-29T06:31:51.650Z,983.87
2022-12-29T06:36:55.762Z,983.90
2022-12-29T06:41:59.964Z,983.78
2022-12-29T06:47:04.124Z,983.93
2022-12-29T06:52:12.762Z,984.21
2022-12-29T06:57:12.463Z,984.25
2022-12-29T07:02:16.831Z,984.13
2022-12-29T07:07:20.723Z,984.20
2022-12-29T07:12:24.894Z,984.30
2022-12-29T07:17:29.051Z,984.30
2022-12-29T07:22:33.249Z,984.20
2022-12-29T07:27:35.507Z,984.35
2022-12-29T07:32:39.647Z,984.60
2022-12-29T07:37:41.940Z,984.80
2022-12-29T07:42:46.113Z,984.93
2022-12-29T07:47:50.299Z,985.08
2022-12-29T07:52:54.416Z,985.25
2022-12-29T07:57:58.576Z,985.70
2022-12-29T08:03:02.740Z,985.78
2022-12-29T08:08:06.912Z,985.76
2022-12-29T08:13:11.110Z,985.88
2022-12-29T08:18:15.214Z,986.21
2022-12-29T08:23:19.409Z,986.21
2022-12-29T08:28:23.540Z,986.31
2022-12-29T08:33:27.712Z,986.53
2022-12-29T08:38:31.854Z,986.55
2022-12-29T08:43:36.039Z,986.54
2022-12-29T08:48:40.196Z,986.56
2022-12-29T08:53:44.377Z,986.47
2022-12-29T08:58:48.507Z,986.38
2022-12-29T09:04:15.332Z,985.98
2022-12-29T09:08:56.823Z,985.14
2022-12-29T09:14:01.200Z,984.73
2022-12-29T09:19:05.168Z,984.87
2022-12-29T09:24:07.432Z,984.93
2022-12-29T09:29:11.586Z,985.19
2022-12-29T09:34:13.842Z,985.58
2022-12-29T09:39:18.012Z,985.98
2022-12-29T09:44:22.188Z,985.96
2022-12-29T09:49:26.326Z,986.00
2022-12-29T09:54:30.480Z,986.12
2022-12-29T09:59:34.640Z,986.30
2022-12-29T10:04:38.823Z,986.32
2022-12-29T10:09:42.996Z,986.27
2022-12-29T10:14:47.152Z,986.75
2022-12-29T10:19:51.297Z,987.09
2022-12-29T10:24:55.476Z,987.48
2022-12-29T10:29:59.678Z,987.68
2022-12-29T10:35:03.806Z,987.73
2022-12-29T10:40:07.932Z,988.14
2022-12-29T10:45:12.126Z,988.33
2022-12-29T10:50:16.703Z,988.66
2022-12-29T10:55:20.457Z,988.83
2022-12-29T11:00:24.609Z,988.94
2022-12-29T11:05:28.821Z,988.75
2022-12-29T11:10:33.177Z,988.76
2022-12-29T11:15:37.058Z,988.88
2022-12-29T11:20:39.358Z,988.77
2022-12-29T11:25:43.493Z,988.73
2022-12-29T11:30:47.667Z,988.70
2022-12-29T11:35:51.856Z,989.03
2022-12-29T11:40:55.998Z,989.12
2022-12-29T11:46:00.221Z,989.09
2022-12-29T11:51:04.290Z,989.20
2022-12-29T11:56:08.504Z,989.32
2022-12-29T12:01:12.629Z,989.40
2022-12-29T12:06:16.770Z,989.54
2022-12-29T12:11:20.931Z,989.57
2022-12-29T12:16:25.218Z,989.55
2022-12-29T12:21:29.277Z,989.62
2022-12-29T12:26:33.442Z,989.62
2022-12-29T12:31:37.665Z,989.85
2022-12-29T12:36:41.770Z,989.73
2022-12-29T12:41:45.902Z,989.86
2022-12-29T12:46:50.273Z,989.79
2022-12-29T12:51:58.206Z,989.70
2022-12-29T12:56:58.410Z,989.95
2022-12-29T13:02:02.725Z,989.88
2022-12-29T13:07:04.848Z,989.68
2022-12-29T13:12:08.984Z,989.94
2022-12-29T13:17:11.278Z,989.68
2022-12-29T13:22:15.433Z,989.65
2022-12-29T13:27:19.624Z,989.78
2022-12-29T13:32:23.774Z,989.73
2022-12-29T13:37:27.899Z,989.77
2022-12-29T13:42:32.077Z,989.75
2022-12-29T13:47:36.210Z,989.62
2022-12-29T13:52:40.425Z,989.55
2022-12-29T13:57:44.568Z,989.55
2022-12-29T14:02:49.012Z,989.60
2022-12-29T14:07:52.956Z,989.68
2022-12-29T14:12:57.053Z,989.71
2022-12-29T14:18:01.179Z,989.80
2022-12-29T14:23:05.404Z,989.83
2022-12-29T14:28:09.536Z,989.77
2022-12-29T14:33:13.718Z,989.97
2022-12-29T14:38:17.855Z,990.24
2022-12-29T14:43:21.991Z,990.49
2022-12-29T14:48:26.200Z,990.64
2022-12-29T14:53:30.324Z,990.69
2022-12-29T14:58:34.489Z,990.79
2022-12-29T15:03:36.735Z,990.89
2022-12-29T15:08:40.963Z,990.76
2022-12-29T15:13:43.161Z,990.68
2022-12-29T15:18:47.365Z,990.77
2022-12-29T15:23:51.495Z,990.67
2022-12-29T15:28:55.732Z,990.70
2022-12-29T15:33:59.908Z,990.94
2022-12-29T15:39:03.995Z,990.82
2022-12-29T15:44:08.170Z,990.82
2022-12-29T15:49:12.352Z,990.82
2022-12-29T15:54:16.456Z,990.83
2022-12-29T15:59:20.621Z,990.81
2022-12-29T16:04:24.788Z,990.96
2022-12-29T16:09:28.992Z,991.04
2022-12-29T16:14:33.120Z,991.20
2022-12-29T16:19:37.289Z,991.14
2022-12-29T16:24:41.482Z,991.10
2022-12-29T16:29:45.616Z,991.05
2022-12-29T16:34:49.751Z,991.11
2022-12-29T16:39:53.953Z,991.10
2022-12-29T16:44:58.071Z,991.10
2022-12-29T16:50:02.240Z,991.18
2022-12-29T16:55:06.423Z,991.20
2022-12-29T17:00:08.691Z,991.19
2022-12-29T17:05:12.868Z,991.26
2022-12-29T17:10:15.146Z,991.58
2022-12-29T17:15:19.280Z,991.64
2022-12-29T17:20:23.473Z,991.72
2022-12-29T17:25:27.620Z,991.86
2022-12-29T17:30:34.067Z,991.78
2022-12-29T17:40:40.088Z,991.94
2022-12-29T17:45:44.282Z,991.87
2022-12-29T17:50:48.435Z,991.69
2022-12-29T17:55:52.570Z,991.46
2022-12-29T18:00:56.752Z,991.30
2022-12-29T18:06:00.899Z,990.75
2022-12-29T18:11:05.043Z,989.53
2022-12-29T18:16:09.337Z,988.62
2022-12-29T18:21:13.445Z,987.71
2022-12-29T18:26:20.910Z,987.09
2022-12-29T18:31:21.815Z,986.69
2022-12-29T18:36:25.881Z,986.34
2022-12-29T18:41:30.300Z,986.04
2022-12-29T18:46:34.275Z,986.00
2022-12-29T18:51:38.361Z,985.92
2022-12-29T18:56:42.529Z,985.88
2022-12-29T19:01:44.895Z,985.92
2022-12-29T19:06:48.997Z,985.94
2022-12-29T19:11:53.154Z,986.24
2022-12-29T19:16:57.264Z,986.48
2022-12-29T19:22:01.461Z,986.76
2022-12-29T19:27:05.618Z,987.15
2022-12-29T19:32:09.784Z,987.44
2022-12-29T19:37:13.915Z,987.89
2022-12-29T19:42:18.126Z,988.41
2022-12-29T19:47:24.640Z,988.64
2022-12-29T19:52:26.463Z,989.16
2022-12-29T19:57:30.584Z,989.40
2022-12-29T20:02:34.861Z,989.52
2022-12-29T20:07:38.909Z,989.60
2022-12-29T20:12:43.123Z,989.54
2022-12-29T20:18:12.943Z,989.85
2022-12-29T20:22:51.401Z,989.81
2022-12-29T20:27:55.566Z,989.87
2022-12-29T20:33:03.385Z,989.88
2022-12-29T20:38:03.971Z,989.90
2022-12-29T20:43:08.034Z,989.97
2022-12-29T20:48:10.356Z,990.14
2022-12-29T20:53:14.569Z,990.14
2022-12-29T20:58:24.804Z,990.37
2022-12-29T21:03:20.996Z,990.54
2022-12-29T21:08:25.073Z,990.60
2022-12-29T21:13:29.255Z,990.75
2022-12-29T21:18:33.453Z,991.01
2022-12-29T21:23:35.670Z,991.07
2022-12-29T21:28:39.851Z,991.09
2022-12-29T21:33:44.002Z,991.12
2022-12-29T21:38:48.227Z,991.16
2022-12-29T21:43:52.337Z,991.23
2022-12-29T21:48:56.474Z,991.18
2022-12-29T21:54:00.659Z,991.10
2022-12-29T21:59:04.864Z,991.02
2022-12-29T22:04:09.048Z,990.95
2022-12-29T22:09:13.140Z,990.78
2022-12-29T22:14:17.272Z,990.90
2022-12-29T22:24:25.657Z,990.87
2022-12-29T22:29:29.790Z,991.01
2022-12-29T22:34:33.951Z,991.10
2022-12-29T22:39:38.095Z,991.16
2022-12-29T22:44:42.312Z,991.23
2022-12-29T22:49:44.546Z,991.43
2022-12-29T22:54:48.713Z,991.58
2022-12-29T22:59:51.089Z,991.72
2022-12-29T23:05:04.419Z,991.69
2022-12-29T23:09:59.363Z,991.80
2022-12-29T23:15:03.480Z,991.84
2022-12-29T23:20:05.715Z,992.00
2022-12-29T23:25:09.897Z,991.99
2022-12-29T23:30:14.030Z,992.13
2022-12-29T23:35:18.243Z,992.34
2022-12-29T23:40:22.419Z,992.42
2022-12-29T23:45:26.564Z,992.58
2022-12-29T23:50:30.710Z,992.63
2022-12-29T23:55:34.899Z,992.56
